sensor_id;sensor_type;location;lat;lon;timestamp;pressure;altitude;pressure_sealevel;temperature;humidity
77171;BME280;66144;50.020;14.422;2023-07-13T00:02:09;98471.13;;;23.36;61.94
77171;BME280;66144;50.020;14.422;2023-07-13T00:04:34;98486.78;;;23.37;62.17
77171;BME280;66144;50.020;14.422;2023-07-13T00:07:00;98485.22;;;23.36;62.35
77171;BME280;66144;50.020;14.422;2023-07-13T00:09:25;98482.13;;;23.34;62.29
77171;BME280;66144;50.020;14.422;2023-07-13T00:11:55;98487.78;;;23.33;62.53
77171;BME280;66144;50.020;14.422;2023-07-13T00:14:21;98488.69;;;23.37;62.40
77171;BME280;66144;50.020;14.422;2023-07-13T00:16:47;98491.56;;;23.44;62.54
77171;BME280;66144;50.020;14.422;2023-07-13T00:19:13;98488.13;;;23.43;62.86
77171;BME280;66144;50.020;14.422;2023-07-13T00:21:39;98482.09;;;23.47;63.25
77171;BME280;66144;50.020;14.422;2023-07-13T00:24:07;98482.97;;;23.51;62.76
77171;BME280;66144;50.020;14.422;2023-07-13T00:26:33;98483.88;;;23.55;62.28
77171;BME280;66144;50.020;14.422;2023-07-13T00:28:59;98481.88;;;23.52;63.09
77171;BME280;66144;50.020;14.422;2023-07-13T00:31:24;98476.09;;;23.62;63.13
77171;BME280;66144;50.020;14.422;2023-07-13T00:33:50;98462.75;;;23.62;64.03
77171;BME280;66144;50.020;14.422;2023-07-13T00:36:16;98460.25;;;23.69;62.95
77171;BME280;66144;50.020;14.422;2023-07-13T00:38:41;98453.16;;;23.73;62.79
77171;BME280;66144;50.020;14.422;2023-07-13T00:41:07;98447.03;;;23.72;63.63
77171;BME280;66144;50.020;14.422;2023-07-13T00:43:33;98445.13;;;23.73;63.28
77171;BME280;66144;50.020;14.422;2023-07-13T00:48:26;98438.94;;;23.69;63.15
77171;BME280;66144;50.020;14.422;2023-07-13T00:50:55;98436.59;;;23.67;63.10
77171;BME280;66144;50.020;14.422;2023-07-13T00:53:22;98433.59;;;23.69;63.80
77171;BME280;66144;50.020;14.422;2023-07-13T00:55:50;98441.69;;;23.72;63.34
77171;BME280;66144;50.020;14.422;2023-07-13T00:58:16;98438.50;;;23.67;63.27
77171;BME280;66144;50.020;14.422;2023-07-13T01:00:41;98443.59;;;23.72;63.86
77171;BME280;66144;50.020;14.422;2023-07-13T01:03:07;98450.31;;;23.66;63.87
77171;BME280;66144;50.020;14.422;2023-07-13T01:05:34;98447.03;;;23.72;62.84
77171;BME280;66144;50.020;14.422;2023-07-13T01:08:01;98443.34;;;23.77;63.82
77171;BME280;66144;50.020;14.422;2023-07-13T01:10:29;98442.91;;;23.75;63.36
77171;BME280;66144;50.020;14.422;2023-07-13T01:13:05;98428.13;;;23.77;63.07
77171;BME280;66144;50.020;14.422;2023-07-13T01:15:43;98430.78;;;23.77;63.76
77171;BME280;66144;50.020;14.422;2023-07-13T01:18:12;98425.13;;;23.79;63.83
77171;BME280;66144;50.020;14.422;2023-07-13T01:20:39;98425.44;;;23.77;63.45
77171;BME280;66144;50.020;14.422;2023-07-13T01:23:10;98420.22;;;23.81;63.55
77171;BME280;66144;50.020;14.422;2023-07-13T01:25:36;98417.56;;;23.81;63.96
77171;BME280;66144;50.020;14.422;2023-07-13T01:28:03;98420.56;;;23.80;63.90
77171;BME280;66144;50.020;14.422;2023-07-13T01:30:29;98418.91;;;23.75;64.38
77171;BME280;66144;50.020;14.422;2023-07-13T01:32:54;98418.31;;;23.82;64.09
77171;BME280;66144;50.020;14.422;2023-07-13T01:35:19;98419.19;;;23.86;63.93
77171;BME280;66144;50.020;14.422;2023-07-13T01:37:45;98420.72;;;23.87;64.07
77171;BME280;66144;50.020;14.422;2023-07-13T01:40:11;98413.25;;;23.92;63.79
77171;BME280;66144;50.020;14.422;2023-07-13T01:42:37;98423.94;;;23.92;64.21
77171;BME280;66144;50.020;14.422;2023-07-13T01:45:03;98416.69;;;23.93;63.69
77171;BME280;66144;50.020;14.422;2023-07-13T01:47:29;98411.03;;;23.94;63.90
77171;BME280;66144;50.020;14.422;2023-07-13T01:49:56;98412.56;;;23.95;64.24
77171;BME280;66144;50.020;14.422;2023-07-13T01:52:21;98420.81;;;23.90;64.29
77171;BME280;66144;50.020;14.422;2023-07-13T01:54:47;98421.59;;;23.91;64.36
77171;BME280;66144;50.020;14.422;2023-07-13T01:57:12;98426.94;;;23.91;64.50
77171;BME280;66144;50.020;14.422;2023-07-13T01:59:38;98424.16;;;23.87;63.97
77171;BME280;66144;50.020;14.422;2023-07-13T02:02:04;98428.06;;;23.90;63.85
77171;BME280;66144;50.020;14.422;2023-07-13T02:04:29;98424.38;;;23.94;63.30
77171;BME280;66144;50.020;14.422;2023-07-13T02:06:54;98420.00;;;24.02;64.13
77171;BME280;66144;50.020;14.422;2023-07-13T02:09:20;98424.47;;;23.98;63.67
77171;BME280;66144;50.020;14.422;2023-07-13T02:11:47;98424.47;;;23.98;63.21
77171;BME280;66144;50.020;14.422;2023-07-13T02:14:14;98429.47;;;23.99;62.72
77171;BME280;66144;50.020;14.422;2023-07-13T02:16:40;98409.13;;;23.95;62.73
77171;BME280;66144;50.020;14.422;2023-07-13T02:19:05;98417.38;;;24.05;62.21
77171;BME280;66144;50.020;14.422;2023-07-13T02:21:31;98420.06;;;24.05;62.58
77171;BME280;66144;50.020;14.422;2023-07-13T02:23:57;98424.28;;;24.06;63.40
77171;BME280;66144;50.020;14.422;2023-07-13T02:26:22;98427.38;;;24.08;63.15
77171;BME280;66144;50.020;14.422;2023-07-13T02:28:48;98438.16;;;24.12;62.33
77171;BME280;66144;50.020;14.422;2023-07-13T02:31:15;98441.84;;;24.07;62.84
77171;BME280;66144;50.020;14.422;2023-07-13T02:33:40;98446.41;;;24.07;62.07
77171;BME280;66144;50.020;14.422;2023-07-13T02:36:06;98447.13;;;24.04;62.22
77171;BME280;66144;50.020;14.422;2023-07-13T02:38:32;98450.13;;;24.02;62.41
77171;BME280;66144;50.020;14.422;2023-07-13T02:41:05;98443.22;;;24.01;63.07
77171;BME280;66144;50.020;14.422;2023-07-13T02:43:32;98445.72;;;23.94;62.69
77171;BME280;66144;50.020;14.422;2023-07-13T02:45:59;98459.38;;;23.93;62.49
77171;BME280;66144;50.020;14.422;2023-07-13T02:48:29;98450.94;;;23.91;62.20
77171;BME280;66144;50.020;14.422;2023-07-13T02:50:54;98457.34;;;24.02;62.49
77171;BME280;66144;50.020;14.422;2023-07-13T02:53:20;98457.41;;;24.05;62.88
77171;BME280;66144;50.020;14.422;2023-07-13T02:55:46;98461.75;;;24.10;62.77
77171;BME280;66144;50.020;14.422;2023-07-13T02:58:13;98462.94;;;24.13;62.84
77171;BME280;66144;50.020;14.422;2023-07-13T03:00:45;98463.97;;;24.08;62.21
77171;BME280;66144;50.020;14.422;2023-07-13T03:03:12;98473.44;;;24.05;62.70
77171;BME280;66144;50.020;14.422;2023-07-13T03:05:41;98474.56;;;24.04;62.66
77171;BME280;66144;50.020;14.422;2023-07-13T03:08:08;98473.03;;;24.03;62.72
77171;BME280;66144;50.020;14.422;2023-07-13T03:10:33;98478.16;;;23.96;62.80
77171;BME280;66144;50.020;14.422;2023-07-13T03:12:59;98472.81;;;23.96;62.78
77171;BME280;66144;50.020;14.422;2023-07-13T03:15:24;98476.63;;;23.95;63.33
77171;BME280;66144;50.020;14.422;2023-07-13T03:17:50;98479.28;;;23.95;63.71
77171;BME280;66144;50.020;14.422;2023-07-13T03:20:15;98473.75;;;23.88;63.21
77171;BME280;66144;50.020;14.422;2023-07-13T03:22:41;98483.56;;;23.84;63.13
77171;BME280;66144;50.020;14.422;2023-07-13T03:25:10;98484.47;;;23.76;63.67
77171;BME280;66144;50.020;14.422;2023-07-13T03:27:36;98490.00;;;23.83;63.39
77171;BME280;66144;50.020;14.422;2023-07-13T03:30:02;98489.25;;;23.83;63.39
77171;BME280;66144;50.020;14.422;2023-07-13T03:32:28;98492.25;;;23.81;63.37
77171;BME280;66144;50.020;14.422;2023-07-13T03:34:53;98501.47;;;23.84;63.15
77171;BME280;66144;50.020;14.422;2023-07-13T03:37:19;98520.56;;;23.86;63.54
77171;BME280;66144;50.020;14.422;2023-07-13T03:39:44;98517.38;;;23.80;63.22
77171;BME280;66144;50.020;14.422;2023-07-13T03:42:09;98523.59;;;23.84;62.77
77171;BME280;66144;50.020;14.422;2023-07-13T03:44:35;98527.88;;;23.89;63.00
77171;BME280;66144;50.020;14.422;2023-07-13T03:47:00;98526.66;;;23.86;63.44
77171;BME280;66144;50.020;14.422;2023-07-13T03:49:26;98532.53;;;23.92;63.51
77171;BME280;66144;50.020;14.422;2023-07-13T03:51:51;98531.53;;;23.96;63.57
77171;BME280;66144;50.020;14.422;2023-07-13T03:54:16;98530.41;;;23.97;63.39
77171;BME280;66144;50.020;14.422;2023-07-13T03:56:42;98535.09;;;23.88;63.65
77171;BME280;66144;50.020;14.422;2023-07-13T03:59:07;98542.94;;;23.81;59.53
77171;BME280;66144;50.020;14.422;2023-07-13T04:01:33;98542.59;;;23.83;57.52
77171;BME280;66144;50.020;14.422;2023-07-13T04:03:58;98550.81;;;23.77;55.24
77171;BME280;66144;50.020;14.422;2023-07-13T04:06:29;98557.16;;;23.85;54.72
77171;BME280;66144;50.020;14.422;2023-07-13T04:08:59;98554.59;;;23.76;54.62
77171;BME280;66144;50.020;14.422;2023-07-13T04:11:28;98556.94;;;23.78;54.74
77171;BME280;66144;50.020;14.422;2023-07-13T04:13:54;98563.16;;;23.82;55.34
77171;BME280;66144;50.020;14.422;2023-07-13T04:16:20;98561.34;;;23.86;54.59
77171;BME280;66144;50.020;14.422;2023-07-13T04:18:46;98568.50;;;23.82;53.11
77171;BME280;66144;50.020;14.422;2023-07-13T04:21:13;98569.84;;;23.76;52.57
77171;BME280;66144;50.020;14.422;2023-07-13T04:23:39;98568.94;;;23.72;52.06
77171;BME280;66144;50.020;14.422;2023-07-13T04:26:05;98569.66;;;23.57;52.11
77171;BME280;66144;50.020;14.422;2023-07-13T04:28:31;98566.44;;;23.63;53.59
77171;BME280;66144;50.020;14.422;2023-07-13T04:30:56;98569.88;;;23.64;52.21
77171;BME280;66144;50.020;14.422;2023-07-13T04:33:22;98564.75;;;23.59;51.84
77171;BME280;66144;50.020;14.422;2023-07-13T04:35:52;98561.44;;;23.62;52.56
77171;BME280;66144;50.020;14.422;2023-07-13T04:38:25;98559.44;;;23.59;52.71
77171;BME280;66144;50.020;14.422;2023-07-13T04:40:51;98566.31;;;23.60;51.45
77171;BME280;66144;50.020;14.422;2023-07-13T04:43:17;98568.63;;;23.49;51.77
77171;BME280;66144;50.020;14.422;2023-07-13T04:45:45;98571.19;;;23.58;51.53
77171;BME280;66144;50.020;14.422;2023-07-13T04:48:11;98571.44;;;23.53;51.43
77171;BME280;66144;50.020;14.422;2023-07-13T04:50:37;98574.97;;;23.45;52.06
77171;BME280;66144;50.020;14.422;2023-07-13T04:53:03;98578.50;;;23.49;53.01
77171;BME280;66144;50.020;14.422;2023-07-13T04:55:29;98575.22;;;23.52;52.14
77171;BME280;66144;50.020;14.422;2023-07-13T04:57:56;98578.88;;;23.47;52.14
77171;BME280;66144;50.020;14.422;2023-07-13T05:00:21;98581.66;;;23.38;52.54
77171;BME280;66144;50.020;14.422;2023-07-13T05:02:47;98584.97;;;23.35;52.16
77171;BME280;66144;50.020;14.422;2023-07-13T05:05:12;98589.22;;;23.24;52.37
77171;BME280;66144;50.020;14.422;2023-07-13T05:07:38;98578.31;;;23.29;52.50
77171;BME280;66144;50.020;14.422;2023-07-13T05:10:03;98585.44;;;23.25;52.33
77171;BME280;66144;50.020;14.422;2023-07-13T05:12:30;98588.31;;;23.20;52.01
77171;BME280;66144;50.020;14.422;2023-07-13T05:14:55;98587.88;;;23.18;52.64
77171;BME280;66144;50.020;14.422;2023-07-13T05:17:20;98601.53;;;23.17;52.41
77171;BME280;66144;50.020;14.422;2023-07-13T05:19:46;98600.41;;;23.18;52.61
77171;BME280;66144;50.020;14.422;2023-07-13T05:22:12;98598.41;;;23.15;53.97
77171;BME280;66144;50.020;14.422;2023-07-13T05:24:37;98610.84;;;22.98;53.40
77171;BME280;66144;50.020;14.422;2023-07-13T05:27:03;98605.38;;;22.95;53.07
77171;BME280;66144;50.020;14.422;2023-07-13T05:29:29;98600.97;;;23.11;53.04
77171;BME280;66144;50.020;14.422;2023-07-13T05:31:54;98604.19;;;23.17;52.88
77171;BME280;66144;50.020;14.422;2023-07-13T05:34:20;98612.88;;;23.26;53.48
77171;BME280;66144;50.020;14.422;2023-07-13T05:36:45;98608.28;;;23.51;52.63
77171;BME280;66144;50.020;14.422;2023-07-13T05:39:11;98621.09;;;23.57;52.51
77171;BME280;66144;50.020;14.422;2023-07-13T05:41:37;98611.44;;;23.65;52.03
77171;BME280;66144;50.020;14.422;2023-07-13T05:44:03;98610.63;;;23.76;52.21
77171;BME280;66144;50.020;14.422;2023-07-13T05:46:28;98614.06;;;23.77;52.13
77171;BME280;66144;50.020;14.422;2023-07-13T05:48:54;98625.38;;;23.98;51.93
77171;BME280;66144;50.020;14.422;2023-07-13T05:51:19;98630.88;;;24.05;52.38
77171;BME280;66144;50.020;14.422;2023-07-13T05:53:45;98627.53;;;24.08;51.42
77171;BME280;66144;50.020;14.422;2023-07-13T05:56:10;98627.59;;;23.96;51.36
77171;BME280;66144;50.020;14.422;2023-07-13T05:58:36;98635.22;;;24.10;51.85
77171;BME280;66144;50.020;14.422;2023-07-13T06:01:08;98627.81;;;24.03;51.34
77171;BME280;66144;50.020;14.422;2023-07-13T06:03:34;98625.81;;;24.00;51.70
77171;BME280;66144;50.020;14.422;2023-07-13T06:06:00;98633.75;;;24.13;50.94
77171;BME280;66144;50.020;14.422;2023-07-13T06:08:25;98637.19;;;24.25;51.64
77171;BME280;66144;50.020;14.422;2023-07-13T06:10:51;98642.75;;;24.20;51.61
77171;BME280;66144;50.020;14.422;2023-07-13T06:13:16;98635.84;;;24.31;51.99
77171;BME280;66144;50.020;14.422;2023-07-13T06:15:48;98648.31;;;24.55;50.06
77171;BME280;66144;50.020;14.422;2023-07-13T06:18:13;98647.34;;;24.75;51.13
77171;BME280;66144;50.020;14.422;2023-07-13T06:20:41;98647.59;;;24.86;49.48
77171;BME280;66144;50.020;14.422;2023-07-13T06:23:06;98653.94;;;25.09;49.45
77171;BME280;66144;50.020;14.422;2023-07-13T06:25:32;98664.47;;;25.34;48.57
77171;BME280;66144;50.020;14.422;2023-07-13T06:27:57;98662.22;;;25.52;48.51
77171;BME280;66144;50.020;14.422;2023-07-13T06:30:23;98652.47;;;25.59;48.14
77171;BME280;66144;50.020;14.422;2023-07-13T06:32:49;98647.91;;;25.44;47.84
77171;BME280;66144;50.020;14.422;2023-07-13T06:35:14;98650.13;;;25.73;47.11
77171;BME280;66144;50.020;14.422;2023-07-13T06:37:39;98647.16;;;25.94;48.12
77171;BME280;66144;50.020;14.422;2023-07-13T06:40:05;98649.28;;;26.24;46.16
77171;BME280;66144;50.020;14.422;2023-07-13T06:42:31;98653.59;;;26.47;46.36
77171;BME280;66144;50.020;14.422;2023-07-13T06:44:56;98653.53;;;26.86;44.79
77171;BME280;66144;50.020;14.422;2023-07-13T06:47:22;98650.44;;;26.84;44.95
77171;BME280;66144;50.020;14.422;2023-07-13T06:49:47;98659.53;;;27.22;44.21
77171;BME280;66144;50.020;14.422;2023-07-13T06:52:13;98666.66;;;27.37;43.66
77171;BME280;66144;50.020;14.422;2023-07-13T06:54:38;98670.19;;;27.64;42.94
77171;BME280;66144;50.020;14.422;2023-07-13T06:57:06;98678.25;;;27.94;42.37
77171;BME280;66144;50.020;14.422;2023-07-13T06:59:32;98674.06;;;28.23;42.02
77171;BME280;66144;50.020;14.422;2023-07-13T07:01:59;98672.84;;;28.50;42.00
77171;BME280;66144;50.020;14.422;2023-07-13T07:04:27;98668.03;;;29.00;40.91
77171;BME280;66144;50.020;14.422;2023-07-13T07:06:52;98666.81;;;29.38;39.24
77171;BME280;66144;50.020;14.422;2023-07-13T07:09:18;98663.84;;;29.50;39.57
77171;BME280;66144;50.020;14.422;2023-07-13T07:11:43;98667.81;;;29.70;39.26
77171;BME280;66144;50.020;14.422;2023-07-13T07:14:08;98666.94;;;29.52;38.99
77171;BME280;66144;50.020;14.422;2023-07-13T07:16:34;98671.19;;;29.57;39.61
77171;BME280;66144;50.020;14.422;2023-07-13T07:19:00;98675.13;;;29.70;39.55
77171;BME280;66144;50.020;14.422;2023-07-13T07:21:25;98679.44;;;29.85;38.36
77171;BME280;66144;50.020;14.422;2023-07-13T07:23:51;98688.13;;;30.22;39.31
77171;BME280;66144;50.020;14.422;2023-07-13T07:26:17;98688.56;;;30.32;38.11
77171;BME280;66144;50.020;14.422;2023-07-13T07:28:42;98688.84;;;30.12;38.27
77171;BME280;66144;50.020;14.422;2023-07-13T07:31:08;98699.31;;;30.24;37.53
77171;BME280;66144;50.020;14.422;2023-07-13T07:33:34;98691.69;;;30.48;38.20
77171;BME280;66144;50.020;14.422;2023-07-13T07:36:00;98697.97;;;30.80;36.94
77171;BME280;66144;50.020;14.422;2023-07-13T07:38:25;98703.00;;;31.00;36.33
77171;BME280;66144;50.020;14.422;2023-07-13T07:40:51;98694.56;;;31.62;35.61
77171;BME280;66144;50.020;14.422;2023-07-13T07:43:16;98697.63;;;31.99;35.28
77171;BME280;66144;50.020;14.422;2023-07-13T07:45:44;98699.06;;;32.36;35.30
77171;BME280;66144;50.020;14.422;2023-07-13T07:48:10;98698.91;;;32.71;33.98
77171;BME280;66144;50.020;14.422;2023-07-13T07:50:37;98704.63;;;32.87;33.43
77171;BME280;66144;50.020;14.422;2023-07-13T07:53:05;98703.72;;;32.17;34.43
77171;BME280;66144;50.020;14.422;2023-07-13T07:55:33;98706.16;;;31.80;34.57
77171;BME280;66144;50.020;14.422;2023-07-13T07:58:00;98709.25;;;31.11;34.85
77171;BME280;66144;50.020;14.422;2023-07-13T08:00:25;98715.28;;;30.65;36.44
77171;BME280;66144;50.020;14.422;2023-07-13T08:02:51;98720.56;;;30.37;36.65
77171;BME280;66144;50.020;14.422;2023-07-13T08:05:16;98716.44;;;29.92;37.28
77171;BME280;66144;50.020;14.422;2023-07-13T08:07:44;98721.53;;;30.07;37.19
77171;BME280;66144;50.020;14.422;2023-07-13T08:10:10;98720.09;;;29.62;36.05
77171;BME280;66144;50.020;14.422;2023-07-13T08:12:36;98727.13;;;29.77;36.11
77171;BME280;66144;50.020;14.422;2023-07-13T08:15:02;98728.88;;;29.55;37.30
77171;BME280;66144;50.020;14.422;2023-07-13T08:17:28;98728.63;;;29.75;36.97
77171;BME280;66144;50.020;14.422;2023-07-13T08:19:53;98733.53;;;29.59;36.29
77171;BME280;66144;50.020;14.422;2023-07-13T08:22:19;98726.16;;;30.07;35.67
77171;BME280;66144;50.020;14.422;2023-07-13T08:24:44;98730.09;;;30.23;35.45
77171;BME280;66144;50.020;14.422;2023-07-13T08:27:13;98729.00;;;30.32;35.25
77171;BME280;66144;50.020;14.422;2023-07-13T08:29:39;98729.03;;;30.46;34.18
77171;BME280;66144;50.020;14.422;2023-07-13T08:32:06;98724.56;;;30.85;34.05
77171;BME280;66144;50.020;14.422;2023-07-13T08:34:34;98724.69;;;31.49;32.38
77171;BME280;66144;50.020;14.422;2023-07-13T08:37:02;98719.25;;;31.96;31.92
77171;BME280;66144;50.020;14.422;2023-07-13T08:39:29;98715.34;;;32.21;30.74
77171;BME280;66144;50.020;14.422;2023-07-13T08:42:05;98716.13;;;32.08;30.89
77171;BME280;66144;50.020;14.422;2023-07-13T08:44:38;98716.66;;;32.79;29.44
77171;BME280;66144;50.020;14.422;2023-07-13T08:47:06;98710.81;;;33.43;30.60
77171;BME280;66144;50.020;14.422;2023-07-13T08:49:33;98716.88;;;33.58;29.62
77171;BME280;66144;50.020;14.422;2023-07-13T08:54:58;98716.84;;;32.33;30.47
77171;BME280;66144;50.020;14.422;2023-07-13T08:57:31;98719.78;;;32.71;28.80
77171;BME280;66144;50.020;14.422;2023-07-13T08:59:59;98721.91;;;33.08;28.58
77171;BME280;66144;50.020;14.422;2023-07-13T09:02:44;98728.53;;;32.92;27.50
77171;BME280;66144;50.020;14.422;2023-07-13T09:05:14;98726.75;;;32.65;28.13
77171;BME280;66144;50.020;14.422;2023-07-13T09:08:01;98738.50;;;32.22;28.81
77171;BME280;66144;50.020;14.422;2023-07-13T09:10:34;98737.78;;;31.93;29.83
77171;BME280;66144;50.020;14.422;2023-07-13T09:15:47;98734.75;;;31.74;29.40
77171;BME280;66144;50.020;14.422;2023-07-13T09:18:28;98750.91;;;31.45;30.51
77171;BME280;66144;50.020;14.422;2023-07-13T09:21:07;98741.66;;;31.46;31.17
77171;BME280;66144;50.020;14.422;2023-07-13T09:23:36;98750.53;;;31.33;31.34
77171;BME280;66144;50.020;14.422;2023-07-13T09:28:34;98764.81;;;31.90;30.39
77171;BME280;66144;50.020;14.422;2023-07-13T09:31:08;98761.78;;;32.97;29.78
77171;BME280;66144;50.020;14.422;2023-07-13T09:33:37;98758.88;;;33.32;28.01
77171;BME280;66144;50.020;14.422;2023-07-13T09:38:45;98759.28;;;34.20;25.34
77171;BME280;66144;50.020;14.422;2023-07-13T09:41:23;98758.59;;;35.07;24.50
77171;BME280;66144;50.020;14.422;2023-07-13T09:44:06;98762.22;;;35.24;24.75
77171;BME280;66144;50.020;14.422;2023-07-13T09:46:34;98760.84;;;35.62;24.55
77171;BME280;66144;50.020;14.422;2023-07-13T09:49:00;98768.53;;;36.14;24.10
77171;BME280;66144;50.020;14.422;2023-07-13T09:51:25;98770.19;;;35.61;23.73
77171;BME280;66144;50.020;14.422;2023-07-13T09:53:51;98768.53;;;34.60;23.60
77171;BME280;66144;50.020;14.422;2023-07-13T09:56:27;98774.66;;;34.34;24.26
77171;BME280;66144;50.020;14.422;2023-07-13T09:58:52;98785.66;;;34.53;23.68
77171;BME280;66144;50.020;14.422;2023-07-13T10:01:37;98781.81;;;34.13;24.12
77171;BME280;66144;50.020;14.422;2023-07-13T10:04:13;98780.38;;;34.02;24.34
77171;BME280;66144;50.020;14.422;2023-07-13T10:06:40;98771.78;;;34.07;24.72
77171;BME280;66144;50.020;14.422;2023-07-13T10:09:09;98762.44;;;33.70;25.67
77171;BME280;66144;50.020;14.422;2023-07-13T10:11:36;98768.66;;;33.12;26.06
77171;BME280;66144;50.020;14.422;2023-07-13T10:14:16;98763.97;;;33.16;26.46
77171;BME280;66144;50.020;14.422;2023-07-13T10:16:45;98765.25;;;33.01;27.26
77171;BME280;66144;50.020;14.422;2023-07-13T10:19:18;98767.25;;;32.89;26.04
77171;BME280;66144;50.020;14.422;2023-07-13T10:22:11;98767.75;;;32.52;27.98
77171;BME280;66144;50.020;14.422;2023-07-13T10:24:39;98756.53;;;32.61;27.55
77171;BME280;66144;50.020;14.422;2023-07-13T10:27:19;98756.53;;;32.61;27.93
77171;BME280;66144;50.020;14.422;2023-07-13T10:29:53;98759.63;;;32.59;28.20
77171;BME280;66144;50.020;14.422;2023-07-13T10:32:21;98748.19;;;31.99;28.65
77171;BME280;66144;50.020;14.422;2023-07-13T10:34:48;98759.00;;;32.02;27.79
77171;BME280;66144;50.020;14.422;2023-07-13T10:37:22;98753.59;;;31.59;28.66
77171;BME280;66144;50.020;14.422;2023-07-13T10:39:50;98753.22;;;31.43;28.50
77171;BME280;66144;50.020;14.422;2023-07-13T10:42:26;98759.41;;;31.33;29.16
77171;BME280;66144;50.020;14.422;2023-07-13T10:44:53;98753.09;;;30.76;29.26
77171;BME280;66144;50.020;14.422;2023-07-13T10:47:18;98740.41;;;31.05;29.07
77171;BME280;66144;50.020;14.422;2023-07-13T10:49:44;98746.25;;;31.21;29.78
77171;BME280;66144;50.020;14.422;2023-07-13T10:52:41;98744.72;;;31.16;29.01
77171;BME280;66144;50.020;14.422;2023-07-13T10:55:34;98739.97;;;30.71;29.23
77171;BME280;66144;50.020;14.422;2023-07-13T11:03:22;98743.03;;;30.69;28.76
77171;BME280;66144;50.020;14.422;2023-07-13T11:05:50;98735.31;;;30.64;29.55
77171;BME280;66144;50.020;14.422;2023-07-13T11:08:50;98735.00;;;30.07;29.67
77171;BME280;66144;50.020;14.422;2023-07-13T11:11:35;98731.16;;;30.05;29.42
77171;BME280;66144;50.020;14.422;2023-07-13T11:14:03;98733.22;;;30.29;29.80
77171;BME280;66144;50.020;14.422;2023-07-13T11:16:46;98720.56;;;30.40;28.92
77171;BME280;66144;50.020;14.422;2023-07-13T11:24:58;98728.19;;;30.28;29.66
77171;BME280;66144;50.020;14.422;2023-07-13T11:30:21;98726.66;;;30.27;29.07
77171;BME280;66144;50.020;14.422;2023-07-13T11:32:51;98726.38;;;29.84;29.18
77171;BME280;66144;50.020;14.422;2023-07-13T11:35:22;98720.16;;;29.73;29.96
77171;BME280;66144;50.020;14.422;2023-07-13T11:37:49;98719.84;;;29.81;30.58
77171;BME280;66144;50.020;14.422;2023-07-13T11:40:18;98721.34;;;29.79;30.10
77171;BME280;66144;50.020;14.422;2023-07-13T11:42:46;98721.63;;;29.67;29.43
77171;BME280;66144;50.020;14.422;2023-07-13T11:45:21;98718.53;;;29.65;30.68
77171;BME280;66144;50.020;14.422;2023-07-13T11:47:51;98720.84;;;29.59;30.58
77171;BME280;66144;50.020;14.422;2023-07-13T11:50:21;98709.50;;;29.90;30.53
77171;BME280;66144;50.020;14.422;2023-07-13T11:52:48;98710.59;;;29.86;32.46
77171;BME280;66144;50.020;14.422;2023-07-13T11:55:19;98712.53;;;29.85;29.38
77171;BME280;66144;50.020;14.422;2023-07-13T11:57:50;98715.97;;;29.79;31.09
77171;BME280;66144;50.020;14.422;2023-07-13T12:00:22;98723.06;;;30.01;30.40
77171;BME280;66144;50.020;14.422;2023-07-13T12:02:51;98717.69;;;30.01;29.52
77171;BME280;66144;50.020;14.422;2023-07-13T12:05:19;98718.06;;;30.07;30.19
77171;BME280;66144;50.020;14.422;2023-07-13T12:07:49;98710.06;;;30.17;29.06
77171;BME280;66144;50.020;14.422;2023-07-13T12:10:27;98708.91;;;30.18;29.68
77171;BME280;66144;50.020;14.422;2023-07-13T12:13:02;98711.97;;;30.13;29.54
77171;BME280;66144;50.020;14.422;2023-07-13T12:15:41;98714.28;;;30.22;28.90
77171;BME280;66144;50.020;14.422;2023-07-13T12:18:15;98712.00;;;30.20;29.46
77171;BME280;66144;50.020;14.422;2023-07-13T12:20:50;98710.97;;;29.81;29.97
77171;BME280;66144;50.020;14.422;2023-07-13T12:23:36;98714.31;;;30.18;29.72
77171;BME280;66144;50.020;14.422;2023-07-13T12:26:04;98713.13;;;30.12;29.05
77171;BME280;66144;50.020;14.422;2023-07-13T12:28:56;98710.41;;;30.12;28.71
77171;BME280;66144;50.020;14.422;2023-07-13T12:34:12;98710.69;;;29.97;29.33
77171;BME280;66144;50.020;14.422;2023-07-13T12:36:47;98703.53;;;30.22;28.45
77171;BME280;66144;50.020;14.422;2023-07-13T12:39:19;98708.47;;;30.09;28.69
77171;BME280;66144;50.020;14.422;2023-07-13T12:41:46;98707.69;;;30.05;28.62
77171;BME280;66144;50.020;14.422;2023-07-13T12:44:17;98706.97;;;30.15;28.46
77171;BME280;66144;50.020;14.422;2023-07-13T12:46:57;98701.81;;;29.93;28.55
77171;BME280;66144;50.020;14.422;2023-07-13T12:49:26;98701.97;;;30.14;29.38
77171;BME280;66144;50.020;14.422;2023-07-13T12:51:56;98698.94;;;30.30;28.61
77171;BME280;66144;50.020;14.422;2023-07-13T12:54:24;98690.41;;;30.13;29.54
77171;BME280;66144;50.020;14.422;2023-07-13T12:56:51;98694.91;;;29.95;29.40
77171;BME280;66144;50.020;14.422;2023-07-13T12:59:20;98691.09;;;30.03;30.03
77171;BME280;66144;50.020;14.422;2023-07-13T13:01:47;98690.78;;;30.12;28.93
77171;BME280;66144;50.020;14.422;2023-07-13T13:04:15;98681.94;;;30.11;28.90
77171;BME280;66144;50.020;14.422;2023-07-13T13:06:41;98678.47;;;30.11;28.51
77171;BME280;66144;50.020;14.422;2023-07-13T13:09:16;98674.28;;;30.28;28.44
77171;BME280;66144;50.020;14.422;2023-07-13T13:11:42;98685.09;;;30.35;28.72
77171;BME280;66144;50.020;14.422;2023-07-13T13:14:08;98678.19;;;30.34;28.61
77171;BME280;66144;50.020;14.422;2023-07-13T13:16:48;98677.41;;;30.37;28.38
77171;BME280;66144;50.020;14.422;2023-07-13T13:19:17;98680.50;;;30.42;28.36
77171;BME280;66144;50.020;14.422;2023-07-13T13:21:44;98677.53;;;30.58;28.11
77171;BME280;66144;50.020;14.422;2023-07-13T13:24:15;98670.09;;;30.37;28.58
77171;BME280;66144;50.020;14.422;2023-07-13T13:26:41;98675.88;;;30.36;29.02